sensor_id;sensor_type;location;lat;lon;timestamp;pressure;altitude;pressure_sealevel;temperature;humidity
22582;BME280;47125;48.542;9.052;2023-10-13T00:08:15;96114.19;;;19.96;43.52
22582;BME280;47125;48.542;9.052;2023-10-13T00:18:20;96111.63;;;19.86;43.86
22582;BME280;47125;48.542;9.052;2023-10-13T00:28:23;96102.53;;;19.76;44.12
22582;BME280;47125;48.542;9.052;2023-10-13T00:38:29;96088.81;;;19.87;44.11
22582;BME280;47125;48.542;9.052;2023-10-13T00:48:32;96087.50;;;19.84;44.15
22582;BME280;47125;48.542;9.052;2023-10-13T00:58:36;96090.00;;;19.80;44.41
22582;BME280;47125;48.542;9.052;2023-10-13T01:08:40;96077.00;;;19.59;44.98
22582;BME280;47125;48.542;9.052;2023-10-13T01:18:46;96066.94;;;19.64;44.80
22582;BME280;47125;48.542;9.052;2023-10-13T01:28:51;96075.84;;;19.65;44.97
22582;BME280;47125;48.542;9.052;2023-10-13T01:38:55;96062.22;;;19.51;45.17
22582;BME280;47125;48.542;9.052;2023-10-13T01:49:04;96053.66;;;19.63;44.92
22582;BME280;47125;48.542;9.052;2023-10-13T01:59:06;96056.59;;;19.48;45.17
22582;BME280;47125;48.542;9.052;2023-10-13T02:09:11;96060.19;;;19.62;44.98
22582;BME280;47125;48.542;9.052;2023-10-13T02:19:15;96049.88;;;19.64;45.39
22582;BME280;47125;48.542;9.052;2023-10-13T02:29:22;96041.00;;;19.58;45.76
22582;BME280;47125;48.542;9.052;2023-10-13T02:39:25;96032.06;;;19.39;47.62
22582;BME280;47125;48.542;9.052;2023-10-13T02:49:30;96018.78;;;19.19;48.31
22582;BME280;47125;48.542;9.052;2023-10-13T02:59:35;95999.19;;;19.03;48.29
22582;BME280;47125;48.542;9.052;2023-10-13T03:09:42;95992.47;;;19.01;47.86
22582;BME280;47125;48.542;9.052;2023-10-13T03:19:52;95985.75;;;18.98;49.08
22582;BME280;47125;48.542;9.052;2023-10-13T03:29:57;95989.13;;;18.85;49.30
22582;BME280;47125;48.542;9.052;2023-10-13T03:40:02;95978.16;;;18.77;48.58
22582;BME280;47125;48.542;9.052;2023-10-13T03:50:10;95960.31;;;18.76;47.75
22582;BME280;47125;48.542;9.052;2023-10-13T04:00:23;95972.75;;;18.77;49.00
22582;BME280;47125;48.542;9.052;2023-10-13T04:10:29;95967.69;;;18.70;48.75
22582;BME280;47125;48.542;9.052;2023-10-13T04:21:03;95967.22;;;18.63;49.42
22582;BME280;47125;48.542;9.052;2023-10-13T04:31:31;95972.88;;;18.38;50.14
22582;BME280;47125;48.542;9.052;2023-10-13T04:41:48;95954.34;;;18.26;51.28
22582;BME280;47125;48.542;9.052;2023-10-13T04:52:01;95945.13;;;18.27;50.81
22582;BME280;47125;48.542;9.052;2023-10-13T05:02:14;95928.75;;;18.18;50.60
22582;BME280;47125;48.542;9.052;2023-10-13T05:12:46;95926.78;;;18.24;49.17
22582;BME280;47125;48.542;9.052;2023-10-13T05:23:06;95927.09;;;18.23;48.84
22582;BME280;47125;48.542;9.052;2023-10-13T05:33:28;95918.31;;;18.07;49.10
22582;BME280;47125;48.542;9.052;2023-10-13T05:43:48;95921.09;;;18.26;48.72
22582;BME280;47125;48.542;9.052;2023-10-13T05:54:10;95927.84;;;18.28;48.63
22582;BME280;47125;48.542;9.052;2023-10-13T06:04:30;95929.63;;;18.09;49.03
22582;BME280;47125;48.542;9.052;2023-10-13T06:14:52;95932.19;;;18.24;48.83
22582;BME280;47125;48.542;9.052;2023-10-13T06:25:12;95930.63;;;18.18;49.22
22582;BME280;47125;48.542;9.052;2023-10-13T06:35:36;95937.38;;;17.92;49.83
22582;BME280;47125;48.542;9.052;2023-10-13T06:45:40;95938.94;;;17.98;49.47
22582;BME280;47125;48.542;9.052;2023-10-13T06:55:44;95928.50;;;18.15;49.08
22582;BME280;47125;48.542;9.052;2023-10-13T07:05:48;95934.22;;;18.13;49.03
22582;BME280;47125;48.542;9.052;2023-10-13T07:15:53;95937.34;;;18.21;49.01
22582;BME280;47125;48.542;9.052;2023-10-13T07:26:14;95959.03;;;18.44;48.46
22582;BME280;47125;48.542;9.052;2023-10-13T07:36:18;95952.09;;;18.62;48.14
22582;BME280;47125;48.542;9.052;2023-10-13T07:46:31;95951.69;;;18.74;47.61
22582;BME280;47125;48.542;9.052;2023-10-13T07:56:35;95950.84;;;18.97;47.36
22582;BME280;47125;48.542;9.052;2023-10-13T08:06:40;95951.22;;;19.09;47.31
22582;BME280;47125;48.542;9.052;2023-10-13T08:16:46;95944.03;;;19.37;47.11
22582;BME280;47125;48.542;9.052;2023-10-13T08:26:54;95944.47;;;19.62;46.66
22582;BME280;47125;48.542;9.052;2023-10-13T08:37:18;95928.75;;;19.97;46.41
22582;BME280;47125;48.542;9.052;2023-10-13T08:47:29;95930.69;;;20.23;45.36
22582;BME280;47125;48.542;9.052;2023-10-13T08:57:39;95933.66;;;20.54;44.71
22582;BME280;47125;48.542;9.052;2023-10-13T09:07:51;95936.94;;;20.92;44.00
22582;BME280;47125;48.542;9.052;2023-10-13T09:18:05;95934.00;;;21.29;42.66
22582;BME280;47125;48.542;9.052;2023-10-13T09:28:16;95920.44;;;21.74;41.64
22582;BME280;47125;48.542;9.052;2023-10-13T09:38:21;95906.66;;;22.23;38.32
22582;BME280;47125;48.542;9.052;2023-10-13T09:48:26;95903.84;;;22.68;37.40
22582;BME280;47125;48.542;9.052;2023-10-13T09:58:32;95895.91;;;23.23;36.20
22582;BME280;47125;48.542;9.052;2023-10-13T10:08:38;95880.84;;;23.94;34.43
22582;BME280;47125;48.542;9.052;2023-10-13T10:19:00;95869.34;;;24.64;32.14
22582;BME280;47125;48.542;9.052;2023-10-13T10:29:10;95867.41;;;25.02;32.29
22582;BME280;47125;48.542;9.052;2023-10-13T10:39:16;95858.63;;;24.88;31.43
22582;BME280;47125;48.542;9.052;2023-10-13T10:49:19;95851.38;;;25.34;31.43
22582;BME280;47125;48.542;9.052;2023-10-13T10:59:35;95838.88;;;25.86;30.73
22582;BME280;47125;48.542;9.052;2023-10-13T11:09:38;95819.81;;;25.78;30.93
22582;BME280;47125;48.542;9.052;2023-10-13T11:19:48;95814.78;;;26.37;29.25
22582;BME280;47125;48.542;9.052;2023-10-13T11:29:51;95799.31;;;27.05;28.42
22582;BME280;47125;48.542;9.052;2023-10-13T11:39:56;95777.47;;;27.48;28.26
22582;BME280;47125;48.542;9.052;2023-10-13T11:49:58;95770.78;;;27.61;27.47
22582;BME280;47125;48.542;9.052;2023-10-13T12:00:02;95756.56;;;28.34;27.31
22582;BME280;47125;48.542;9.052;2023-10-13T12:10:27;95739.69;;;28.67;26.48
22582;BME280;47125;48.542;9.052;2023-10-13T12:20:41;95734.19;;;29.02;26.87
22582;BME280;47125;48.542;9.052;2023-10-13T12:30:46;95722.97;;;29.48;25.97
22582;BME280;47125;48.542;9.052;2023-10-13T12:40:55;95698.72;;;29.35;26.59
22582;BME280;47125;48.542;9.052;2023-10-13T12:51:34;95683.31;;;29.95;26.38
22582;BME280;47125;48.542;9.052;2023-10-13T13:01:53;95669.25;;;29.81;25.44
22582;BME280;47125;48.542;9.052;2023-10-13T13:11:56;95660.16;;;29.54;25.32
22582;BME280;47125;48.542;9.052;2023-10-13T13:22:01;95651.44;;;29.29;24.58
22582;BME280;47125;48.542;9.052;2023-10-13T13:32:04;95647.78;;;28.83;24.87
22582;BME280;47125;48.542;9.052;2023-10-13T13:42:10;95632.19;;;28.53;24.62
22582;BME280;47125;48.542;9.052;2023-10-13T13:52:18;95624.28;;;28.51;23.78
22582;BME280;47125;48.542;9.052;2023-10-13T14:02:36;95615.66;;;28.33;23.97
22582;BME280;47125;48.542;9.052;2023-10-13T14:12:38;95604.88;;;28.06;24.17
22582;BME280;47125;48.542;9.052;2023-10-13T14:22:45;95597.69;;;27.85;23.96
22582;BME280;47125;48.542;9.052;2023-10-13T14:32:50;95578.78;;;27.49;23.09
22582;BME280;47125;48.542;9.052;2023-10-13T14:42:53;95560.91;;;27.24;22.68
22582;BME280;47125;48.542;9.052;2023-10-13T14:52:57;95548.16;;;27.00;22.32
22582;BME280;47125;48.542;9.052;2023-10-13T15:03:01;95552.81;;;26.84;21.80
22582;BME280;47125;48.542;9.052;2023-10-13T15:13:07;95532.34;;;26.66;22.49
22582;BME280;47125;48.542;9.052;2023-10-13T15:23:11;95534.97;;;26.47;23.27
22582;BME280;47125;48.542;9.052;2023-10-13T15:33:16;95522.78;;;26.32;24.13
22582;BME280;47125;48.542;9.052;2023-10-13T15:43:22;95526.16;;;26.13;24.94
22582;BME280;47125;48.542;9.052;2023-10-13T15:53:25;95515.47;;;25.96;25.79
22582;BME280;47125;48.542;9.052;2023-10-13T16:03:29;95504.25;;;25.73;26.90
22582;BME280;47125;48.542;9.052;2023-10-13T16:13:31;95498.25;;;25.56;27.38
22582;BME280;47125;48.542;9.052;2023-10-13T16:23:35;95484.59;;;25.32;27.77
22582;BME280;47125;48.542;9.052;2023-10-13T16:33:40;95487.66;;;25.06;28.78
22582;BME280;47125;48.542;9.052;2023-10-13T16:43:44;95486.84;;;24.81;29.71
22582;BME280;47125;48.542;9.052;2023-10-13T16:53:47;95491.13;;;24.70;31.98
22582;BME280;47125;48.542;9.052;2023-10-13T17:03:52;95481.19;;;24.53;32.29
22582;BME280;47125;48.542;9.052;2023-10-13T17:13:54;95490.66;;;24.23;33.24
22582;BME280;47125;48.542;9.052;2023-10-13T17:23:59;95482.72;;;24.09;33.12
22582;BME280;47125;48.542;9.052;2023-10-13T17:34:03;95489.22;;;23.84;35.68
22582;BME280;47125;48.542;9.052;2023-10-13T17:44:08;95478.31;;;23.64;36.70
22582;BME280;47125;48.542;9.052;2023-10-13T17:54:11;95463.88;;;23.42;37.96
22582;BME280;47125;48.542;9.052;2023-10-13T18:04:15;95457.31;;;23.35;38.30
22582;BME280;47125;48.542;9.052;2023-10-13T18:14:19;95456.31;;;23.19;38.73
22582;BME280;47125;48.542;9.052;2023-10-13T18:24:23;95461.66;;;23.07;39.17
22582;BME280;47125;48.542;9.052;2023-10-13T18:34:28;95452.91;;;22.92;38.10
22582;BME280;47125;48.542;9.052;2023-10-13T18:44:32;95437.75;;;22.83;37.78
22582;BME280;47125;48.542;9.052;2023-10-13T18:54:34;95435.41;;;22.64;36.17
22582;BME280;47125;48.542;9.052;2023-10-13T19:04:38;95417.00;;;22.61;34.12
22582;BME280;47125;48.542;9.052;2023-10-13T19:14:41;95422.16;;;22.54;32.46
22582;BME280;47125;48.542;9.052;2023-10-13T19:24:45;95411.75;;;22.65;32.11
22582;BME280;47125;48.542;9.052;2023-10-13T19:34:47;95405.50;;;22.56;32.37
22582;BME280;47125;48.542;9.052;2023-10-13T19:44:51;95411.34;;;22.37;31.73
22582;BME280;47125;48.542;9.052;2023-10-13T19:54:54;95423.78;;;22.46;31.09
22582;BME280;47125;48.542;9.052;2023-10-13T20:04:58;95421.91;;;22.30;31.44
22582;BME280;47125;48.542;9.052;2023-10-13T20:15:06;95409.56;;;22.41;31.78
22582;BME280;47125;48.542;9.052;2023-10-13T20:25:10;95412.81;;;22.26;30.98
22582;BME280;47125;48.542;9.052;2023-10-13T20:35:15;95408.16;;;22.35;31.03
22582;BME280;47125;48.542;9.052;2023-10-13T20:45:24;95408.34;;;22.21;31.11
22582;BME280;47125;48.542;9.052;2023-10-13T20:55:27;95417.78;;;22.24;31.02
22582;BME280;47125;48.542;9.052;2023-10-13T21:05:31;95406.63;;;22.00;31.32
22582;BME280;47125;48.542;9.052;2023-10-13T21:15:36;95403.47;;;21.98;31.14
22582;BME280;47125;48.542;9.052;2023-10-13T21:25:40;95400.13;;;21.92;31.60
22582;BME280;47125;48.542;9.052;2023-10-13T21:35:43;95394.97;;;21.90;31.35
22582;BME280;47125;48.542;9.052;2023-10-13T21:45:48;95382.97;;;22.00;31.31
22582;BME280;47125;48.542;9.052;2023-10-13T21:55:50;95386.97;;;21.85;31.84
22582;BME280;47125;48.542;9.052;2023-10-13T22:05:54;95382.84;;;21.79;31.63
22582;BME280;47125;48.542;9.052;2023-10-13T22:15:57;95384.75;;;21.79;31.79
22582;BME280;47125;48.542;9.052;2023-10-13T22:26:02;95405.53;;;21.83;32.07
22582;BME280;47125;48.542;9.052;2023-10-13T22:36:05;95416.41;;;21.83;31.85
22582;BME280;47125;48.542;9.052;2023-10-13T22:46:10;95419.44;;;21.90;32.12
22582;BME280;47125;48.542;9.052;2023-10-13T22:56:13;95419.16;;;21.92;32.65
22582;BME280;47125;48.542;9.052;2023-10-13T23:06:21;95407.31;;;21.88;33.48
22582;BME280;47125;48.542;9.052;2023-10-13T23:16:25;95401.03;;;21.87;33.76
22582;BME280;47125;48.542;9.052;2023-10-13T23:26:29;95426.66;;;21.78;34.83
22582;BME280;47125;48.542;9.052;2023-10-13T23:36:31;95424.41;;;21.80;36.12
22582;BME280;47125;48.542;9.052;2023-10-13T23:46:35;95416.56;;;21.87;37.88
22582;BME280;47125;48.542;9.052;2023-10-13T23:56:38;95410.53;;;21.90;39.51
